Time;durP1;ratioP1;P1;durP2;ratioP2;P2;SDS_P1;SDS_P2;PMS_P1;PMS_P2;Temp;Humidity;BMP_temperature;BMP_pressure;BME280_temperature;BME280_humidity;BME280_pressure;Samples;Min_cycle;Max_cycle;Signal;HPM_P1;HPM_P2
2021/12/11 00:01:52;;;;;;;27.40;14.07;;;;;;;-7.00;82.15;100585.09;4921022;28;20417;-82
2021/12/11 00:04:21;;;;;;;29.15;14.95;;;;;;;-7.05;81.71;100573.78;4959992;28;20057;-82
2021/12/11 00:06:51;;;;;;;30.02;13.45;;;;;;;-7.03;81.72;100578.94;4916193;29;20387;-82
2021/12/11 00:09:36;;;;;;;27.75;13.88;;;;;;;-6.98;81.49;100585.22;4953819;28;20129;-82
2021/12/11 00:12:13;;;;;;;46.45;23.85;;;;;;;-7.00;81.45;100569.09;4939114;29;20126;-82
2021/12/11 00:14:42;;;;;;;32.40;16.10;;;;;;;-7.00;81.42;100581.72;4924884;29;20039;-81
2021/12/11 00:17:08;;;;;;;25.80;13.23;;;;;;;-6.93;81.17;100568.81;4934627;28;20111;-81
2021/12/11 00:19:39;;;;;;;30.58;15.43;;;;;;;-6.93;81.56;100566.28;4952832;28;20126;-81
2021/12/11 00:22:11;;;;;;;29.27;14.88;;;;;;;-7.00;80.73;100569.97;4934864;28;20050;-81
2021/12/11 00:24:37;;;;;;;32.35;15.00;;;;;;;-7.03;80.89;100571.38;4936147;29;20051;-81
2021/12/11 00:27:06;;;;;;;29.45;14.45;;;;;;;-6.97;81.41;100576.88;4920673;28;20486;-83
2021/12/11 00:29:32;;;;;;;27.80;14.23;;;;;;;-6.95;81.30;100575.38;4937277;29;20523;-82
2021/12/11 00:32:03;;;;;;;;;;;;;;;-6.97;81.44;100585.31;4921105;29;20062;-82
2021/12/11 00:34:29;;;;;;;32.90;15.50;;;;;;;-6.96;81.14;100584.59;4952314;28;19922;-82
2021/12/11 00:36:58;;;;;;;28.58;14.02;;;;;;;-6.97;81.11;100581.94;4931897;28;20027;-82
2021/12/11 00:39:24;;;;;;;29.05;14.90;;;;;;;-6.96;81.50;100583.72;4944012;28;20525;-82
2021/12/11 00:41:54;;;;;;;;;;;;;;;-6.97;80.27;100575.25;4931578;29;20055;-82
2021/12/11 00:44:40;;;;;;;30.25;15.23;;;;;;;-7.06;80.40;100578.66;4947505;28;19968;-84
2021/12/11 00:47:28;;;;;;;32.92;16.15;;;;;;;-7.13;81.23;100589.03;4958288;28;20050;-81
2021/12/11 00:50:00;;;;;;;30.25;15.70;;;;;;;-7.16;80.61;100590.53;4937577;28;20043;-82
2021/12/11 00:52:41;;;;;;;29.67;15.23;;;;;;;-7.06;81.23;100593.81;4954972;28;20051;-82
2021/12/11 00:55:22;;;;;;;31.35;16.20;;;;;;;-7.09;80.56;100589.41;4932742;28;20039;-82
2021/12/11 00:57:48;;;;;;;30.80;15.50;;;;;;;-7.05;80.37;100583.84;4935094;28;20043;-82
2021/12/11 01:00:18;;;;;;;32.85;16.65;;;;;;;-7.12;80.56;100585.75;4938998;28;20134;-82
2021/12/11 01:02:44;;;;;;;34.65;17.08;;;;;;;-7.08;81.68;100582.72;4935249;29;20073;-82
2021/12/11 01:05:10;;;;;;;;;;;;;;;-7.07;81.52;100581.97;4923470;28;20035;-81
2021/12/11 01:07:36;;;;;;;33.33;15.90;;;;;;;-7.18;81.08;100565.97;4955081;28;20008;-82
2021/12/11 01:10:13;;;;;;;32.75;16.98;;;;;;;-7.17;81.22;100575.31;4943198;29;20511;-80
2021/12/11 01:12:46;;;;;;;35.42;16.60;;;;;;;-7.17;81.10;100563.56;4936345;29;20426;-82
2021/12/11 01:15:24;;;;;;;30.63;16.08;;;;;;;-7.14;81.51;100559.56;4923597;28;20455;-81
2021/12/11 01:18:22;;;;;;;30.27;14.75;;;;;;;-7.17;81.10;100557.66;4923247;29;20043;-82
2021/12/11 01:21:03;;;;;;;35.47;16.10;;;;;;;-7.23;80.28;100562.22;4924059;29;20131;-80
2021/12/11 01:23:55;;;;;;;29.02;14.75;;;;;;;-7.13;81.38;100552.09;4946421;29;20043;-82
2021/12/11 01:26:21;;;;;;;33.88;16.25;;;;;;;-7.23;80.13;100568.13;4958479;28;20039;-83
2021/12/11 01:28:48;;;;;;;30.92;15.00;;;;;;;-7.21;80.53;100574.16;4921603;29;20517;-82
2021/12/11 01:31:15;;;;;;;31.35;14.88;;;;;;;-7.17;80.97;100563.56;4945532;28;20074;-84
2021/12/11 01:33:40;;;;;;;32.10;14.70;;;;;;;-7.14;81.08;100577.19;4934818;29;20115;-81
2021/12/11 01:36:07;;;;;;;30.00;14.60;;;;;;;-7.25;80.44;100579.72;4907466;29;20577;-82
2021/12/11 01:38:33;;;;;;;32.63;15.75;;;;;;;-7.21;79.56;100585.91;4914968;29;20039;-82
2021/12/11 01:41:02;;;;;;;;;;;;;;;-7.20;80.54;100597.72;4938353;29;20518;-82
2021/12/11 01:43:30;;;;;;;28.70;14.23;;;;;;;-7.22;80.52;100590.06;4922518;29;20456;-81
2021/12/11 01:45:57;;;;;;;32.47;17.45;;;;;;;-7.19;80.07;100582.75;4935463;28;20046;-82
2021/12/11 01:48:31;;;;;;;30.75;13.25;;;;;;;-7.18;80.55;100594.59;4938177;29;20041;-82
2021/12/11 01:51:16;;;;;;;28.33;12.93;;;;;;;-7.13;79.69;100597.47;4935900;28;20410;-82
2021/12/11 01:53:47;;;;;;;32.47;14.30;;;;;;;-7.29;79.76;100580.22;4929625;29;20035;-82
2021/12/11 01:56:16;;;;;;;34.78;15.77;;;;;;;-7.39;80.11;100580.25;4922618;29;20058;-81
2021/12/11 01:58:57;;;;;;;29.60;14.93;;;;;;;-7.36;81.15;100580.50;4938502;28;20043;-81
2021/12/11 02:01:30;;;;;;;31.63;15.32;;;;;;;-7.43;80.70;100569.03;4940145;28;20039;-81
2021/12/11 02:03:56;;;;;;;31.33;15.73;;;;;;;-7.42;80.46;100573.34;4927837;29;20054;-81
2021/12/11 02:06:25;;;;;;;;;;;;;;;-7.37;81.26;100582.91;4922795;28;20075;-81
2021/12/11 02:08:51;;;;;;;29.25;14.07;;;;;;;-7.34;80.46;100576.44;4928020;29;20479;-81
2021/12/11 02:11:17;;;;;;;;;;;;;;;-7.42;80.53;100585.94;4939128;28;20063;-81
2021/12/11 02:13:49;;;;;;;31.83;14.27;;;;;;;-7.37;80.23;100580.38;4951121;28;19948;-82
2021/12/11 02:16:18;;;;;;;28.42;14.18;;;;;;;-7.40;80.02;100595.25;4928643;28;20059;-81
2021/12/11 02:18:46;;;;;;;29.95;15.07;;;;;;;-7.38;80.48;100604.69;4965258;28;20046;-81
2021/12/11 02:21:13;;;;;;;30.60;15.98;;;;;;;-7.36;79.83;100595.63;4942460;29;20051;-81
2021/12/11 02:23:39;;;;;;;30.75;14.95;;;;;;;-7.52;80.98;100607.72;4935691;28;20445;-81
2021/12/11 02:26:14;;;;;;;;;;;;;;;-7.51;80.90;100596.91;4974657;28;20085;-81
2021/12/11 02:28:57;;;;;;;28.90;13.35;;;;;;;-7.45;80.75;100594.88;4937391;29;20361;-82
2021/12/11 02:31:46;;;;;;;32.38;14.65;;;;;;;-7.39;80.26;100600.41;4926298;29;20090;-82
2021/12/11 02:34:23;;;;;;;29.42;13.95;;;;;;;-7.44;80.47;100592.47;4956572;28;20097;-82
2021/12/11 02:36:58;;;;;;;31.58;14.57;;;;;;;-7.37;80.59;100588.81;4937203;28;20043;-82
2021/12/11 02:39:28;;;;;;;29.70;15.02;;;;;;;-7.47;81.00;100594.75;4938132;29;20067;-82
2021/12/11 02:41:59;;;;;;;32.65;14.35;;;;;;;-7.56;81.22;100585.53;4944791;28;20106;-82
2021/12/11 02:44:37;;;;;;;30.67;14.48;;;;;;;-7.48;80.71;100589.56;4953190;28;20047;-81
2021/12/11 02:47:18;;;;;;;28.95;14.57;;;;;;;-7.48;81.15;100585.41;4939113;28;20043;-81
2021/12/11 02:49:52;;;;;;;30.25;14.85;;;;;;;-7.40;80.39;100583.53;4918509;29;20075;-81
2021/12/11 02:52:50;;;;;;;28.80;14.45;;;;;;;-7.55;80.81;100587.31;4930755;29;20050;-81
2021/12/11 02:55:23;;;;;;;31.00;14.18;;;;;;;-7.47;80.99;100581.25;4950785;28;20070;-81
2021/12/11 02:57:52;;;;;;;28.35;13.30;;;;;;;-7.59;80.96;100586.19;4950105;28;20054;-81
2021/12/11 03:00:21;;;;;;;27.23;14.02;;;;;;;-7.58;80.54;100587.06;4937244;29;20050;-81
2021/12/11 03:02:50;;;;;;;25.58;13.88;;;;;;;-7.49;81.05;100597.91;4948389;28;20039;-82
2021/12/11 03:05:19;;;;;;;31.10;13.20;;;;;;;-7.46;80.17;100595.63;4940938;28;20031;-80
2021/12/11 03:07:50;;;;;;;28.73;12.75;;;;;;;-7.46;80.76;100605.72;4956946;28;20405;-81
2021/12/11 03:10:18;;;;;;;25.35;14.02;;;;;;;-7.47;79.41;100603.94;4938129;29;20046;-81
2021/12/11 03:12:44;;;;;;;30.05;13.65;;;;;;;-7.48;80.00;100597.13;4923854;29;20035;-81
2021/12/11 03:15:12;;;;;;;24.73;13.63;;;;;;;-7.43;80.93;100604.31;4941020;29;20138;-81
2021/12/11 03:17:38;;;;;;;26.08;13.45;;;;;;;-7.46;80.58;100593.13;4940980;29;20062;-81
2021/12/11 03:20:05;;;;;;;;;;;;;;;-7.42;80.50;100582.53;4925417;29;20039;-82
2021/12/11 03:22:33;;;;;;;30.67;13.48;;;;;;;-7.42;79.53;100590.09;4940711;29;19919;-81
2021/12/11 03:25:01;;;;;;;28.00;14.55;;;;;;;-7.47;79.30;100583.75;4925013;29;20054;-83
2021/12/11 03:27:27;;;;;;;29.50;12.85;;;;;;;-7.47;79.32;100597.28;4940563;29;20035;-82
2021/12/11 03:29:52;;;;;;;;;;;;;;;-7.44;80.28;100597.50;4909172;29;20565;-82
2021/12/11 03:32:19;;;;;;;29.52;13.68;;;;;;;-7.56;79.38;100590.56;4940592;29;19914;-81
2021/12/11 03:34:45;;;;;;;28.05;13.70;;;;;;;-7.57;79.10;100599.78;4925002;29;20054;-81
2021/12/11 03:37:11;;;;;;;;;;;;;;;-7.55;80.38;100602.44;4938580;28;20045;-82
2021/12/11 03:39:39;;;;;;;24.23;12.18;;;;;;;-7.53;80.55;100595.88;4949805;28;19918;-82
2021/12/11 03:42:09;;;;;;;24.70;12.43;;;;;;;-7.56;80.30;100588.06;4941136;28;20090;-82
2021/12/11 03:44:34;;;;;;;29.52;13.30;;;;;;;-7.56;79.50;100586.44;4929288;29;20045;-81
2021/12/11 03:47:02;;;;;;;;;;;;;;;-7.56;79.47;100593.09;4945266;28;20043;-82
2021/12/11 03:49:28;;;;;;;27.73;12.38;;;;;;;-7.58;79.67;100592.09;4953446;28;20385;-82
2021/12/11 03:51:53;;;;;;;;;;;;;;;-7.58;79.74;100587.94;4917208;29;20127;-82
2021/12/11 03:54:23;;;;;;;27.30;13.02;;;;;;;-7.65;80.00;100580.66;4946139;28;19918;-83
2021/12/11 03:56:49;;;;;;;25.90;12.88;;;;;;;-7.74;80.18;100579.91;4940610;29;20039;-83
2021/12/11 03:59:15;;;;;;;;;;;;;;;-7.71;80.77;100586.03;4921360;28;20050;-82
2021/12/11 04:01:44;;;;;;;26.45;13.02;;;;;;;-7.80;80.92;100585.28;4939871;29;19918;-81
2021/12/11 04:04:36;;;;;;;33.80;15.07;;;;;;;-7.73;81.65;100585.06;4937387;28;20133;-81
2021/12/11 04:07:03;;;;;;;31.05;13.45;;;;;;;-7.72;80.91;100574.22;4944366;28;20049;-82
2021/12/11 04:09:29;;;;;;;26.15;12.30;;;;;;;-7.71;81.03;100565.00;4943401;28;20146;-82
2021/12/11 04:11:54;;;;;;;;;;;;;;;-7.76;80.63;100571.31;4941162;29;20047;-82
2021/12/11 04:14:25;;;;;;;27.60;13.00;;;;;;;-7.90;80.63;100555.06;4935929;29;20408;-81
2021/12/11 04:16:51;;;;;;;25.30;11.85;;;;;;;-7.85;81.69;100563.88;4940852;29;20043;-82
2021/12/11 04:19:17;;;;;;;;;;;;;;;-7.88;81.53;100565.25;4969584;28;20481;-82
2021/12/11 04:21:43;;;;;;;25.17;12.02;;;;;;;-7.85;81.02;100552.91;4975140;28;19925;-82
2021/12/11 04:24:09;;;;;;;23.75;12.38;;;;;;;-7.77;81.09;100551.91;4941136;29;20035;-81
2021/12/11 04:26:36;;;;;;;28.70;12.52;;;;;;;-7.84;81.44;100549.63;4954882;28;20130;-82
2021/12/11 04:29:03;;;;;;;28.17;12.88;;;;;;;-7.78;81.52;100563.63;4959718;28;20538;-83
2021/12/11 04:31:30;;;;;;;29.17;13.35;;;;;;;-7.84;80.52;100559.72;4940244;28;20125;-81
2021/12/11 04:33:59;;;;;;;30.13;13.20;;;;;;;-8.00;80.90;100560.09;4943058;28;20045;-82
2021/12/11 04:36:33;;;;;;;30.95;15.45;;;;;;;-7.88;81.28;100571.16;4938906;29;20126;-82
2021/12/11 04:39:00;;;;;;;28.08;12.98;;;;;;;-7.83;80.88;100577.50;4942139;28;20506;-82
2021/12/11 04:41:31;;;;;;;;;;;;;;;-7.88;80.90;100580.34;4940107;28;20059;-84
2021/12/11 04:43:57;;;;;;;28.88;13.35;;;;;;;-7.94;81.16;100565.63;4960468;28;19928;-82
2021/12/11 04:46:23;;;;;;;;;;;;;;;-7.96;80.79;100579.75;4940456;29;20035;-82
2021/12/11 04:49:00;;;;;;;27.88;13.63;;;;;;;-8.06;80.57;100575.56;4923446;29;20013;-82
2021/12/11 04:51:33;;;;;;;26.15;12.35;;;;;;;-8.02;80.53;100571.66;4958615;28;20043;-82
2021/12/11 04:54:24;;;;;;;29.70;13.55;;;;;;;-8.01;80.14;100584.41;4958274;28;20046;-82
2021/12/11 04:57:35;;;;;;;27.25;12.52;;;;;;;-7.95;81.18;100578.97;4955056;29;20045;-82
2021/12/11 05:00:17;;;;;;;31.60;13.40;;;;;;;-7.89;80.72;100574.44;4952250;28;20127;-82
2021/12/11 05:08:00;;;;;;;;;;;;;;;-7.90;80.77;100597.00;4943037;29;20573;-82
2021/12/11 05:10:49;;;;;;;26.50;12.40;;;;;;;-7.90;80.10;100592.84;4939200;29;19926;-81
2021/12/11 05:13:14;;;;;;;30.15;13.18;;;;;;;-8.06;79.53;100587.25;4928328;28;20094;-82
2021/12/11 05:15:41;;;;;;;;;;;;;;;-7.99;79.83;100597.09;4939523;29;20395;-82
2021/12/11 05:18:11;;;;;;;31.27;13.93;;;;;;;-8.00;80.93;100590.31;4935509;28;19944;-81
2021/12/11 05:20:39;;;;;;;29.80;13.32;;;;;;;-7.93;79.86;100593.44;4942931;28;20043;-82
2021/12/11 05:23:05;;;;;;;29.65;13.82;;;;;;;-7.90;79.42;100582.75;4946156;29;20129;-81
2021/12/11 05:25:31;;;;;;;;;;;;;;;-7.99;79.60;100592.06;4936830;28;20081;-81
2021/12/11 05:27:56;;;;;;;27.73;11.75;;;;;;;-7.93;80.24;100583.38;4938918;28;19919;-81
2021/12/11 05:30:25;;;;;;;27.00;13.65;;;;;;;-8.10;78.51;100572.69;4933520;28;20050;-82
2021/12/11 05:32:51;;;;;;;26.73;12.73;;;;;;;-8.03;79.27;100579.97;4926030;28;20090;-81
2021/12/11 05:35:17;;;;;;;;;;;;;;;-8.02;79.75;100586.75;4925357;28;20134;-81
2021/12/11 05:37:43;;;;;;;28.00;13.10;;;;;;;-8.02;79.28;100575.06;4924434;29;19925;-82
2021/12/11 05:40:10;;;;;;;29.23;13.65;;;;;;;-8.16;79.48;100579.69;4922462;29;20134;-81
2021/12/11 05:42:36;;;;;;;26.73;13.13;;;;;;;-8.12;79.40;100584.22;4934928;28;20119;-81
2021/12/11 05:45:02;;;;;;;;;;;;;;;-8.28;78.48;100585.47;4920224;29;20535;-81
2021/12/11 05:47:28;;;;;;;33.13;14.05;;;;;;;-8.37;79.59;100588.88;4925937;29;19955;-81
2021/12/11 05:49:53;;;;;;;;;;;;;;;-8.27;79.17;100593.91;4919232;29;20095;-82
2021/12/11 05:52:20;;;;;;;31.60;14.90;;;;;;;-8.30;79.33;100571.84;4939490;28;19917;-80
2021/12/11 05:54:47;;;;;;;36.45;16.63;;;;;;;-8.13;78.21;100587.50;4923477;29;20043;-78
2021/12/11 05:57:14;;;;;;;38.55;18.10;;;;;;;-8.36;77.70;100573.88;4902995;29;20182;-79
2021/12/11 05:59:41;;;;;;;34.38;15.80;;;;;;;-8.32;78.78;100580.94;4915475;28;20137;-80
2021/12/11 06:02:17;;;;;;;36.80;16.27;;;;;;;-8.40;77.98;100592.00;4918429;29;20051;-80
2021/12/11 06:04:44;;;;;;;38.30;15.55;;;;;;;-8.41;78.75;100594.41;4921791;28;20035;-80
2021/12/11 06:07:11;;;;;;;39.63;15.45;;;;;;;-8.36;78.42;100601.53;4919534;29;20507;-80
2021/12/11 06:09:38;;;;;;;35.35;14.60;;;;;;;-8.31;78.10;100601.94;4946896;29;20484;-80
2021/12/11 06:12:06;;;;;;;33.28;14.85;;;;;;;-8.31;77.27;100597.78;4918206;29;20036;-80
2021/12/11 06:14:32;;;;;;;32.83;15.00;;;;;;;-8.33;77.29;100600.94;4929898;29;20047;-79
2021/12/11 06:16:58;;;;;;;;;;;;;;;-8.33;76.24;100613.53;4922131;29;20134;-80
2021/12/11 06:19:26;;;;;;;33.08;14.00;;;;;;;-8.39;76.31;100595.41;4953346;29;19925;-80
2021/12/11 06:21:52;;;;;;;33.42;14.63;;;;;;;-8.33;76.10;100601.81;4921929;28;20036;-79
2021/12/11 06:24:19;;;;;;;41.13;16.60;;;;;;;-8.47;75.77;100612.38;4921775;29;20055;-81
2021/12/11 06:26:44;;;;;;;35.83;14.90;;;;;;;-8.44;75.97;100605.06;4918669;28;20046;-79
2021/12/11 06:29:10;;;;;;;;;;;;;;;-8.39;76.16;100618.03;4902841;29;20411;-81
2021/12/11 06:31:36;;;;;;;38.30;16.55;;;;;;;-8.38;75.74;100609.72;4906987;29;20338;-80
2021/12/11 06:34:01;;;;;;;;;;;;;;;-8.40;75.96;100607.09;4937483;29;20050;-79
2021/12/11 06:36:27;;;;;;;40.85;16.98;;;;;;;-8.49;75.01;100617.25;4917542;29;20409;-79
2021/12/11 06:38:55;;;;;;;;;;;;;;;-8.53;75.06;100611.81;4931383;28;20403;-80
2021/12/11 06:41:22;;;;;;;35.75;15.40;;;;;;;-8.49;75.25;100618.88;4922827;29;19922;-80
2021/12/11 06:43:49;;;;;;;38.20;16.38;;;;;;;-8.51;74.63;100608.69;4905729;28;20079;-81
2021/12/11 06:46:17;;;;;;;41.95;16.98;;;;;;;-8.59;73.87;100613.81;4937429;28;20043;-80
2021/12/11 06:48:43;;;;;;;41.50;16.17;;;;;;;-8.49;74.75;100621.41;4956795;28;20121;-80
2021/12/11 06:51:08;;;;;;;;;;;;;;;-8.69;73.13;100632.25;4912702;29;20039;-81
2021/12/11 06:53:45;;;;;;;40.47;15.95;;;;;;;-8.65;73.96;100631.78;4957464;28;19933;-79
2021/12/11 06:56:13;;;;;;;41.40;16.48;;;;;;;-8.60;74.56;100629.66;4941526;29;20446;-80
2021/12/11 06:58:38;;;;;;;41.72;16.75;;;;;;;-8.64;73.57;100632.66;4933676;29;20050;-81
2021/12/11 07:01:04;;;;;;;;;;;;;;;-8.59;73.70;100638.97;4926210;29;20074;-81
2021/12/11 07:03:30;;;;;;;41.08;16.83;;;;;;;-8.56;72.84;100636.75;4941290;29;20297;-79
2021/12/11 07:05:56;;;;;;;38.22;15.77;;;;;;;-8.64;72.50;100640.22;4925215;28;20035;-79
2021/12/11 07:08:23;;;;;;;38.22;15.90;;;;;;;-8.84;71.61;100639.38;4933437;29;20442;-80
2021/12/11 07:10:49;;;;;;;38.60;16.42;;;;;;;-8.76;73.08;100637.50;4941859;29;20103;-84
2021/12/11 07:13:14;;;;;;;;;;;;;;;-8.69;71.88;100651.50;4939626;29;20035;-80
2021/12/11 07:15:41;;;;;;;37.97;14.57;;;;;;;-8.68;72.29;100644.09;4969235;28;19922;-80
2021/12/11 07:18:07;;;;;;;34.10;14.32;;;;;;;-8.66;71.65;100644.22;4942063;28;20109;-79
2021/12/11 07:20:32;;;;;;;;;;;;;;;-8.71;69.91;100646.31;4944915;28;20459;-81
2021/12/11 07:22:58;;;;;;;43.67;17.48;;;;;;;-8.78;70.57;100639.88;4930120;28;19949;-80
2021/12/11 07:25:25;;;;;;;;;;;;;;;-8.66;70.12;100645.09;4941257;29;20070;-79
2021/12/11 07:27:52;;;;;;;;;;;;;;;-8.65;70.13;100653.53;4946001;28;19941;-80
2021/12/11 07:30:18;;;;;;;36.35;15.48;;;;;;;-8.65;69.91;100658.56;4960234;28;19918;-80
2021/12/11 07:32:45;;;;;;;;;;;;;;;-8.71;70.06;100653.88;4976618;28;20031;-82
2021/12/11 07:35:11;;;;;;;31.30;13.93;;;;;;;-8.92;69.13;100652.88;4959692;28;19922;-81
2021/12/11 07:37:37;;;;;;;;;;;;;;;-8.87;69.25;100666.75;4952820;29;20035;-81
2021/12/11 07:40:06;;;;;;;33.90;14.05;;;;;;;-8.89;69.50;100673.25;4935398;28;20385;-80
2021/12/11 07:42:31;;;;;;;32.40;15.23;;;;;;;-9.03;68.76;100676.16;4941257;29;20059;-81
2021/12/11 07:44:57;;;;;;;;;;;;;;;-9.08;68.65;100677.38;4972763;28;20050;-80
2021/12/11 07:47:23;;;;;;;36.03;15.77;;;;;;;-8.98;69.08;100682.47;4942250;29;19965;-82
2021/12/11 07:49:48;;;;;;;;;;;;;;;-8.95;69.28;100680.25;4945257;28;20047;-80
2021/12/11 07:52:14;;;;;;;31.70;15.70;;;;;;;-9.00;69.14;100681.47;4921865;29;19922;-79
2021/12/11 07:54:41;;;;;;;;;;;;;;;-9.10;68.74;100682.28;4925353;29;20055;-82
2021/12/11 07:57:07;;;;;;;28.20;14.25;;;;;;;-9.25;68.14;100671.75;4939707;28;19974;-84
2021/12/11 07:59:32;;;;;;;;;;;;;;;-9.29;68.65;100689.81;4930288;29;20039;-82
2021/12/11 08:01:58;;;;;;;26.45;13.52;;;;;;;-9.40;68.85;100695.47;4927017;28;20378;-80
2021/12/11 08:04:24;;;;;;;;;;;;;;;-9.37;68.95;100695.75;4915746;29;20134;-80
2021/12/11 08:06:50;;;;;;;26.30;12.80;;;;;;;-9.25;68.90;100690.97;4936785;29;19974;-81
2021/12/11 08:09:19;;;;;;;28.25;13.73;;;;;;;-9.29;68.43;100683.91;4954325;29;20043;-83
2021/12/11 08:11:45;;;;;;;29.83;15.82;;;;;;;-9.15;69.87;100680.13;4917510;29;20042;-80
2021/12/11 08:14:11;;;;;;;;;;;;;;;-9.08;68.94;100687.44;4941543;29;20047;-81
2021/12/11 08:16:45;;;;;;;27.48;12.98;;;;;;;-9.13;68.31;100668.56;4937401;29;20301;-83
2021/12/11 08:19:12;;;;;;;25.40;13.38;;;;;;;-9.10;68.45;100687.31;4957200;28;20138;-80
2021/12/11 08:21:38;;;;;;;24.83;12.43;;;;;;;-9.11;67.82;100679.66;4930032;29;20043;-79
2021/12/11 08:24:05;;;;;;;;;;;;;;;-9.04;68.27;100677.81;4921552;28;20050;-80
2021/12/11 08:26:32;;;;;;;28.83;13.45;;;;;;;-9.09;67.80;100680.66;4928262;29;19965;-82
2021/12/11 08:28:58;;;;;;;29.27;13.88;;;;;;;-9.08;68.00;100687.44;4895734;29;20086;-81
2021/12/11 08:31:23;;;;;;;;;;;;;;;-9.06;67.38;100678.44;4938400;29;20044;-81
2021/12/11 08:33:49;;;;;;;29.38;13.00;;;;;;;-9.06;67.94;100675.91;4949564;28;19918;-79
2021/12/11 08:36:15;;;;;;;29.17;13.65;;;;;;;-9.25;66.92;100664.22;4930746;29;20039;-79
2021/12/11 08:38:41;;;;;;;;;;;;;;;-9.24;67.11;100672.63;4920531;28;20036;-80
2021/12/11 08:41:07;;;;;;;29.13;13.82;;;;;;;-9.23;66.53;100665.22;4939016;28;20279;-80
2021/12/11 08:43:33;;;;;;;26.52;11.93;;;;;;;-9.16;67.38;100653.19;4953417;28;20189;-81
2021/12/11 08:46:08;;;;;;;;;;;;;;;-9.25;65.65;100659.19;4943579;28;20086;-81
2021/12/11 08:48:35;;;;;;;26.75;13.70;;;;;;;-9.36;67.32;100644.75;4948767;29;19919;-80
2021/12/11 08:51:08;;;;;;;24.63;12.75;;;;;;;-9.32;68.16;100639.28;4939358;28;20067;-81
2021/12/11 08:53:34;;;;;;;22.92;12.23;;;;;;;-9.08;67.56;100644.72;4939912;29;20513;-83
2021/12/11 08:56:00;;;;;;;;;;;;;;;-9.07;66.74;100646.47;4950882;28;20135;-81
2021/12/11 08:58:27;;;;;;;22.70;11.95;;;;;;;-8.98;67.31;100633.13;4953617;28;19923;-81
2021/12/11 09:01:03;;;;;;;25.98;11.65;;;;;;;-8.90;67.00;100621.19;4942413;28;20069;-80
2021/12/11 09:03:49;;;;;;;21.50;11.30;;;;;;;-8.94;66.54;100639.28;4938313;29;20042;-81
2021/12/11 09:06:31;;;;;;;24.27;11.50;;;;;;;-8.82;67.06;100639.47;4938688;28;20046;-80
2021/12/11 09:09:06;;;;;;;25.33;11.95;;;;;;;-8.88;66.27;100623.88;4940989;29;20089;-81
2021/12/11 09:11:39;;;;;;;27.55;12.90;;;;;;;-8.89;66.48;100622.97;4941239;29;20047;-82
2021/12/11 09:14:11;;;;;;;22.15;12.27;;;;;;;-8.82;66.98;100612.69;4923290;29;20053;-79
2021/12/11 09:16:51;;;;;;;26.15;13.18;;;;;;;-8.65;66.08;100616.69;4947362;28;20042;-80
2021/12/11 09:19:24;;;;;;;24.45;11.98;;;;;;;-8.58;65.46;100603.88;4939786;29;20082;-81
2021/12/11 09:22:06;;;;;;;29.00;12.50;;;;;;;-8.60;65.29;100604.50;4922781;28;20043;-80
2021/12/11 09:24:49;;;;;;;25.02;11.70;;;;;;;-8.57;65.78;100593.06;4939763;29;20409;-80
2021/12/11 09:27:24;;;;;;;21.55;12.52;;;;;;;-8.57;65.10;100592.19;4937011;28;20039;-80
2021/12/11 09:30:00;;;;;;;39.97;19.05;;;;;;;-8.55;66.00;100595.72;4965143;28;20131;-81
2021/12/11 09:32:27;;;;;;;25.33;13.18;;;;;;;-8.51;66.19;100600.28;4958596;28;20055;-81
2021/12/11 09:35:27;;;;;;;25.77;12.23;;;;;;;-8.57;66.00;100597.22;4951307;28;20078;-83
2021/12/11 09:37:59;;;;;;;22.23;11.55;;;;;;;-8.52;65.84;100589.34;4938552;29;20051;-81
2021/12/11 09:40:34;;;;;;;24.33;12.00;;;;;;;-8.45;65.87;100595.75;4925286;28;20414;-81
2021/12/11 09:43:01;;;;;;;23.30;12.07;;;;;;;-8.46;65.19;100599.03;4939036;28;20089;-85
2021/12/11 09:45:28;;;;;;;25.73;12.20;;;;;;;-8.38;65.18;100599.66;4940794;28;20054;-81
2021/12/11 09:47:58;;;;;;;23.58;12.02;;;;;;;-8.31;64.52;100612.88;4952231;29;20043;-80
2021/12/11 09:50:30;;;;;;;27.75;13.50;;;;;;;-8.34;64.48;100601.66;4956262;28;20103;-79
2021/12/11 09:52:56;;;;;;;25.98;12.27;;;;;;;-8.30;64.80;100602.06;4922291;29;20520;-80
2021/12/11 09:55:23;;;;;;;;;;;;;;;-8.34;64.67;100607.56;4932960;28;20066;-80
2021/12/11 09:57:52;;;;;;;24.70;12.00;;;;;;;-8.21;64.63;100594.41;4924417;28;19922;-82
2021/12/11 10:00:30;;;;;;;27.15;11.20;;;;;;;-8.13;63.70;100595.94;4907548;29;20100;-82
2021/12/11 10:02:56;;;;;;;25.33;11.45;;;;;;;-8.05;63.40;100591.56;4936202;29;20039;-79
2021/12/11 10:05:31;;;;;;;24.27;12.30;;;;;;;-8.08;63.18;100581.22;4929067;29;20135;-81
2021/12/11 10:08:24;;;;;;;25.02;11.43;;;;;;;-7.77;63.96;100594.75;4953260;28;20055;-80
2021/12/11 10:10:47;;;;;;;24.35;12.20;;;;;;;-7.62;62.69;100569.94;4941410;29;20043;-81
2021/12/11 10:13:12;;;;;;;28.77;12.07;;;;;;;-7.38;61.82;100576.06;4934614;29;20027;-81
2021/12/11 10:15:40;;;;;;;24.80;12.43;;;;;;;-7.44;61.85;100571.44;4939199;29;20102;-79
2021/12/11 10:18:19;;;;;;;24.38;13.00;;;;;;;-7.46;61.30;100563.75;4941991;28;20031;-81
2021/12/11 10:20:49;;;;;;;21.98;10.90;;;;;;;-7.30;61.26;100568.38;4928884;28;20047;-81
2021/12/11 10:23:17;;;;;;;20.00;11.73;;;;;;;-7.23;61.64;100568.13;4940986;28;20079;-80
2021/12/11 10:25:43;;;;;;;22.83;11.90;;;;;;;-7.26;60.63;100555.28;4950592;28;20077;-85
2021/12/11 10:28:11;;;;;;;;;;;;;;;-7.25;61.40;100564.59;4932178;28;20043;-79
2021/12/11 10:30:41;;;;;;;23.67;10.80;;;;;;;-7.04;60.79;100574.66;4964305;28;19937;-79
2021/12/11 10:33:08;;;;;;;67.15;35.22;;;;;;;-6.86;60.57;100576.09;4964859;28;20035;-79
2021/12/11 10:35:36;;;;;;;23.60;12.93;;;;;;;-6.84;59.38;100578.75;4909830;29;20050;-80
2021/12/11 10:38:04;;;;;;;23.58;11.73;;;;;;;-6.93;59.32;100576.38;4926031;29;20134;-81
2021/12/11 10:40:37;;;;;;;20.77;10.90;;;;;;;-6.98;60.00;100581.06;4922862;28;20039;-81
2021/12/11 10:43:08;;;;;;;23.15;12.30;;;;;;;-7.06;59.33;100587.13;4941262;29;20054;-80
2021/12/11 10:45:34;;;;;;;22.85;11.70;;;;;;;-6.99;59.80;100583.47;4939213;28;20503;-80
2021/12/11 10:48:03;;;;;;;24.58;11.43;;;;;;;-6.84;59.76;100574.56;4947862;28;20042;-79
2021/12/11 10:50:39;;;;;;;25.60;11.20;;;;;;;-6.61;59.20;100576.38;4953278;28;20520;-81
2021/12/11 10:53:07;;;;;;;21.02;10.57;;;;;;;-6.59;58.91;100566.44;4958024;28;20051;-81
2021/12/11 10:55:33;;;;;;;21.92;11.68;;;;;;;-6.76;59.10;100570.16;4943382;29;20581;-81
2021/12/11 10:57:59;;;;;;;;;;;;;;;-6.77;58.70;100576.84;4944081;28;20455;-79
2021/12/11 11:00:29;;;;;;;22.57;10.03;;;;;;;-6.74;59.54;100566.09;4966268;28;19918;-82
2021/12/11 11:02:54;;;;;;;30.35;15.30;;;;;;;-6.84;59.20;100569.53;4939164;28;20035;-81
2021/12/11 11:05:21;;;;;;;25.48;12.30;;;;;;;-6.96;60.31;100564.41;4925213;29;20113;-81
2021/12/11 11:07:47;;;;;;;24.90;12.45;;;;;;;-6.88;59.76;100556.56;4947586;28;20417;-80
2021/12/11 11:10:25;;;;;;;20.67;11.57;;;;;;;-6.79;60.07;100560.69;4924870;29;20031;-80
2021/12/11 11:12:53;;;;;;;22.90;11.13;;;;;;;-6.67;59.17;100559.13;4944013;28;20039;-83
2021/12/11 11:15:21;;;;;;;23.35;12.13;;;;;;;-6.72;58.91;100562.94;4941419;29;20031;-80
2021/12/11 11:17:47;;;;;;;26.20;11.77;;;;;;;-6.99;57.60;100569.22;4940528;29;20047;-80
2021/12/11 11:20:13;;;;;;;;;;;;;;;-7.24;58.52;100578.06;4924074;29;20051;-81
2021/12/11 11:22:40;;;;;;;26.15;12.52;;;;;;;-7.27;59.00;100570.28;4958175;28;20030;-79
2021/12/11 11:25:08;;;;;;;25.17;12.50;;;;;;;-7.26;58.25;100579.59;4926022;28;20089;-79
2021/12/11 11:27:34;;;;;;;22.42;11.50;;;;;;;-7.22;59.04;100581.63;4940627;29;20047;-80
2021/12/11 11:30:01;;;;;;;21.13;10.00;;;;;;;-7.20;59.08;100575.03;4952956;28;20046;-80
2021/12/11 11:32:31;;;;;;;18.92;10.40;;;;;;;-7.36;59.42;100579.63;4959832;28;20445;-80
2021/12/11 11:35:16;;;;;;;24.40;12.05;;;;;;;-7.53;59.17;100579.13;4941069;29;20078;-81
2021/12/11 11:37:42;;;;;;;49.42;26.95;;;;;;;-7.68;59.76;100593.00;4912137;28;20047;-81
2021/12/11 11:40:12;;;;;;;29.27;13.45;;;;;;;-7.77;60.31;100585.53;4931655;29;20046;-81
2021/12/11 11:42:38;;;;;;;23.15;12.00;;;;;;;-7.66;60.57;100599.03;4938181;29;20090;-81